createdAt,value
2018-12-04T00:01:13.267Z,71.61
2018-12-04T00:03:47.071Z,70.99
2018-12-04T00:06:20.881Z,71.75
2018-12-04T00:08:54.887Z,71.33
2018-12-04T00:14:25.725Z,71.97
2018-12-04T00:16:59.644Z,71.32
2018-12-04T00:19:33.510Z,71.33
2018-12-04T00:22:07.316Z,72.67
2018-12-04T00:24:41.475Z,73.24
2018-12-04T00:27:15.380Z,73.85
2018-12-04T00:29:49.084Z,73.31
2018-12-04T00:32:22.804Z,72.23
2018-12-04T00:34:56.898Z,72.57
2018-12-04T00:37:30.759Z,73.92
2018-12-04T00:40:06.561Z,74.00
2018-12-04T00:42:40.245Z,74.83
2018-12-04T00:45:14.371Z,75.56
2018-12-04T00:47:48.205Z,74.15
2018-12-04T00:50:22.097Z,73.24
2018-12-04T00:52:55.987Z,72.83
2018-12-04T00:55:33.892Z,72.15
2018-12-04T00:58:07.798Z,73.94
2018-12-04T01:00:41.807Z,73.41
2018-12-04T01:03:15.516Z,74.16
2018-12-04T01:05:49.726Z,73.16
2018-12-04T01:08:23.499Z,73.22
2018-12-04T01:10:57.642Z,72.27
2018-12-04T01:13:31.550Z,73.47
2018-12-04T01:16:05.361Z,73.39
2018-12-04T01:18:39.467Z,73.00
2018-12-04T01:21:13.272Z,72.14
2018-12-04T01:23:47.141Z,72.01
2018-12-04T01:26:21.155Z,71.73
2018-12-04T01:28:55.199Z,71.55
2018-12-04T01:31:29.109Z,71.75
2018-12-04T01:34:03.116Z,71.91
2018-12-04T01:36:36.921Z,72.03
2018-12-04T01:39:10.829Z,74.39
2018-12-04T01:41:44.798Z,73.34
2018-12-04T01:44:18.848Z,73.00
2018-12-04T01:46:52.964Z,73.17
2018-12-04T01:49:26.852Z,73.12
2018-12-04T01:52:00.879Z,72.00
2018-12-04T01:54:34.887Z,72.16
2018-12-04T01:57:08.787Z,72.26
2018-12-04T01:59:42.804Z,73.21
2018-12-04T02:02:16.814Z,72.98
2018-12-04T02:04:50.824Z,72.99
2018-12-04T02:07:24.679Z,72.68
2018-12-04T02:09:58.843Z,72.74
2018-12-04T02:12:32.982Z,72.43
2018-12-04T02:15:07.068Z,72.89
2018-12-04T02:17:40.976Z,72.49
2018-12-04T02:20:14.882Z,71.93
2018-12-04T02:22:48.648Z,71.86
2018-12-04T02:25:22.807Z,72.17
2018-12-04T02:27:56.655Z,72.26
2018-12-04T02:30:30.719Z,72.48
2018-12-04T02:33:04.938Z,72.96
2018-12-04T02:35:38.741Z,74.04
2018-12-04T02:38:12.747Z,74.55
2018-12-04T02:40:46.831Z,74.55
2018-12-04T02:43:20.972Z,74.19
2018-12-04T02:45:54.877Z,74.34
2018-12-04T02:48:28.888Z,74.48
2018-12-04T02:51:02.645Z,73.59
2018-12-04T02:53:36.705Z,72.16
2018-12-04T02:56:10.507Z,72.20
2018-12-04T02:58:44.416Z,71.86
2018-12-04T03:01:18.323Z,71.62
2018-12-04T03:03:53.971Z,70.71
2018-12-04T03:06:27.837Z,70.33
2018-12-04T03:09:02.003Z,70.61
2018-12-04T03:11:36.001Z,70.70
2018-12-04T03:14:11.754Z,69.91
2018-12-04T03:16:45.499Z,69.61
2018-12-04T03:19:19.569Z,69.72
2018-12-04T03:21:53.473Z,69.65
2018-12-04T03:24:27.380Z,70.37
2018-12-04T03:27:01.288Z,70.23
2018-12-04T03:29:35.209Z,70.43
2018-12-04T03:32:09.309Z,70.10
2018-12-04T03:34:43.216Z,69.17
2018-12-04T03:37:17.128Z,68.45
2018-12-04T03:39:51.246Z,69.01
2018-12-04T03:42:25.247Z,69.40
2018-12-04T03:44:59.256Z,69.40
2018-12-04T03:47:33.063Z,69.46
2018-12-04T03:50:07.171Z,69.80
2018-12-04T03:52:41.185Z,69.67
2018-12-04T03:55:15.191Z,69.29
2018-12-04T03:57:49.407Z,69.11
2018-12-04T04:00:23.313Z,69.52
2018-12-04T04:02:57.425Z,68.82
2018-12-04T04:05:31.230Z,69.52
2018-12-04T04:08:05.139Z,69.42
2018-12-04T04:10:39.252Z,68.40
2018-12-04T04:13:13.055Z,68.05
2018-12-04T04:15:46.860Z,67.74
2018-12-04T04:18:20.736Z,66.38
2018-12-04T04:20:54.778Z,67.32
2018-12-04T04:23:28.689Z,67.82
2018-12-04T04:26:02.594Z,67.52
2018-12-04T04:28:36.602Z,67.27
2018-12-04T04:31:10.407Z,66.51
2018-12-04T04:33:44.453Z,66.21
2018-12-04T04:36:18.372Z,65.54
2018-12-04T04:38:52.335Z,66.88
2018-12-04T04:41:26.786Z,66.40
2018-12-04T04:44:00.867Z,65.58
2018-12-04T04:46:34.879Z,65.83
2018-12-04T04:49:08.885Z,65.42
2018-12-04T04:51:42.897Z,64.90
2018-12-04T04:54:16.865Z,64.91
2018-12-04T04:56:51.027Z,65.30
2018-12-04T04:59:24.823Z,65.08
2018-12-04T05:01:58.731Z,64.78
2018-12-04T05:04:32.843Z,65.26
2018-12-04T05:07:06.594Z,64.92
2018-12-04T05:09:40.764Z,65.04
2018-12-04T05:12:14.771Z,64.47
2018-12-04T05:14:48.781Z,64.99
2018-12-04T05:17:22.688Z,65.01
2018-12-04T05:19:56.499Z,65.21
2018-12-04T05:22:30.503Z,64.78
2018-12-04T05:25:05.023Z,64.92
2018-12-04T05:27:38.830Z,64.75
2018-12-04T05:30:12.837Z,64.40
2018-12-04T05:32:47.052Z,64.25
2018-12-04T05:35:20.812Z,64.58
2018-12-04T05:37:55.073Z,65.05
2018-12-04T05:40:29.044Z,65.39
2018-12-04T05:43:03.096Z,65.46
2018-12-04T05:45:37.102Z,66.48
2018-12-04T05:48:11.009Z,66.47
2018-12-04T05:50:44.880Z,65.72
2018-12-04T05:53:37.153Z,65.59
2018-12-04T05:56:11.064Z,65.49
2018-12-04T05:58:45.025Z,65.43
2018-12-04T06:01:19.040Z,65.02
2018-12-04T06:03:53.191Z,65.00
2018-12-04T06:06:26.946Z,66.44
2018-12-04T06:09:01.006Z,65.85
2018-12-04T06:11:35.016Z,66.23
2018-12-04T06:14:09.028Z,65.90
2018-12-04T06:16:42.831Z,66.10
2018-12-04T06:19:16.738Z,65.77
2018-12-04T06:21:50.486Z,65.06
2018-12-04T06:24:24.655Z,65.01
2018-12-04T06:26:58.517Z,65.16
2018-12-04T06:29:32.675Z,65.29
2018-12-04T06:32:06.550Z,65.06
2018-12-04T06:34:41.088Z,65.29
2018-12-04T06:37:14.957Z,64.95
2018-12-04T06:39:48.895Z,64.56
2018-12-04T06:42:23.132Z,64.68
2018-12-04T06:44:57.226Z,64.27
2018-12-04T06:47:31.217Z,64.41
2018-12-04T06:50:08.441Z,64.21
2018-12-04T06:55:21.681Z,63.83
2018-12-04T06:57:57.125Z,63.60
2018-12-04T07:00:31.033Z,63.19
2018-12-04T07:03:05.144Z,63.22
2018-12-04T07:05:39.052Z,63.43
2018-12-04T07:08:12.754Z,63.56
2018-12-04T07:10:46.866Z,63.48
2018-12-04T07:13:21.081Z,63.66
2018-12-04T07:15:54.989Z,63.91
2018-12-04T07:18:28.853Z,63.94
2018-12-04T07:21:02.869Z,64.36
2018-12-04T07:23:36.918Z,64.44
2018-12-04T07:26:10.926Z,64.66
2018-12-04T07:28:44.834Z,64.99
2018-12-04T07:31:18.810Z,65.16
2018-12-04T07:33:52.796Z,65.27
2018-12-04T07:36:26.862Z,65.87
2018-12-04T07:39:00.826Z,65.46
2018-12-04T07:41:34.783Z,65.16
2018-12-04T07:44:08.788Z,65.17
2018-12-04T07:46:42.696Z,64.94
2018-12-04T07:49:16.588Z,65.88
2018-12-04T07:51:50.614Z,65.12
2018-12-04T07:54:24.726Z,65.21
2018-12-04T07:56:58.892Z,65.16
2018-12-04T07:59:32.848Z,65.09
2018-12-04T08:02:06.754Z,64.78
2018-12-04T08:04:40.664Z,64.85
2018-12-04T08:07:14.776Z,64.82
2018-12-04T08:09:48.784Z,64.62
2018-12-04T08:12:23.551Z,64.92
2018-12-04T08:14:57.625Z,64.80
2018-12-04T08:17:31.529Z,65.33
2018-12-04T08:20:06.845Z,65.18
2018-12-04T08:22:40.636Z,64.93
2018-12-04T08:25:14.685Z,64.87
2018-12-04T08:27:48.593Z,64.97
2018-12-04T08:30:22.705Z,64.98
2018-12-04T08:32:56.817Z,65.06
2018-12-04T08:35:30.929Z,64.79
2018-12-04T08:38:05.044Z,65.46
2018-12-04T08:40:39.871Z,65.07
2018-12-04T08:43:14.084Z,65.04
2018-12-04T08:45:48.094Z,64.85
2018-12-04T08:48:21.906Z,64.93
2018-12-04T08:50:55.807Z,64.68
2018-12-04T08:53:29.771Z,65.02
2018-12-04T08:56:04.549Z,65.18
2018-12-04T08:58:38.450Z,65.22
2018-12-04T09:01:12.415Z,64.90
2018-12-04T09:03:46.470Z,65.25
2018-12-04T09:06:20.378Z,65.35
2018-12-04T09:08:54.146Z,65.09
2018-12-04T09:11:28.077Z,65.27
2018-12-04T09:14:02.714Z,65.10
2018-12-04T09:16:36.621Z,64.42
2018-12-04T09:19:10.374Z,63.86
2018-12-04T09:21:44.358Z,63.67
2018-12-04T09:24:18.369Z,63.54
2018-12-04T09:26:52.678Z,63.61
2018-12-04T09:29:26.635Z,63.50
2018-12-04T09:32:00.786Z,62.52
2018-12-04T09:34:34.588Z,62.38
2018-12-04T09:37:08.494Z,62.26
2018-12-04T09:39:42.402Z,61.85
2018-12-04T09:42:16.314Z,61.90
2018-12-04T09:44:50.216Z,61.81
2018-12-04T09:47:23.973Z,61.33
2018-12-04T09:49:57.928Z,59.42
2018-12-04T09:52:31.698Z,59.83
2018-12-04T09:55:06.239Z,59.64
2018-12-04T09:57:40.163Z,59.80
2018-12-04T10:00:14.174Z,58.85
2018-12-04T10:02:48.080Z,58.78
2018-12-04T10:05:21.988Z,58.74
2018-12-04T10:07:55.896Z,58.27
2018-12-04T10:10:29.803Z,57.26
2018-12-04T10:13:03.710Z,57.27
2018-12-04T10:15:37.434Z,57.77
2018-12-04T10:18:11.558Z,57.76
2018-12-04T10:20:45.739Z,55.43
2018-12-04T10:23:19.710Z,57.38
2018-12-04T10:25:53.861Z,57.22
2018-12-04T10:28:27.769Z,56.58
2018-12-04T10:31:07.215Z,54.89
2018-12-04T10:33:41.013Z,55.40
2018-12-04T10:36:14.826Z,56.29
2018-12-04T10:38:48.576Z,55.89
2018-12-04T10:41:22.424Z,55.52
2018-12-04T10:43:56.382Z,55.98
2018-12-04T10:46:30.342Z,55.72
2018-12-04T10:49:04.213Z,55.89
2018-12-04T10:51:38.259Z,56.03
2018-12-04T10:54:12.069Z,56.06
2018-12-04T10:56:46.234Z,56.77
2018-12-04T10:59:20.390Z,55.84
2018-12-04T11:01:59.937Z,56.41
2018-12-04T11:04:33.780Z,56.02
2018-12-04T11:07:07.971Z,55.63
2018-12-04T11:09:42.163Z,56.30
2018-12-04T11:12:16.072Z,55.85
2018-12-04T11:14:49.878Z,55.60
2018-12-04T11:17:23.886Z,53.61
2018-12-04T11:19:57.648Z,55.72
2018-12-04T11:22:31.700Z,56.93
2018-12-04T11:25:07.162Z,56.05
2018-12-04T11:27:40.993Z,54.51
2018-12-04T11:30:14.959Z,55.48
2018-12-04T11:32:48.765Z,55.16
2018-12-04T11:35:22.470Z,55.52
2018-12-04T11:37:56.579Z,55.84
2018-12-04T11:40:30.486Z,56.28
2018-12-04T11:43:04.396Z,55.25
2018-12-04T11:45:39.224Z,55.41
2018-12-04T11:48:13.129Z,55.32
2018-12-04T11:50:47.139Z,55.48
2018-12-04T11:53:21.004Z,54.81
2018-12-04T11:55:55.018Z,54.76
2018-12-04T11:58:29.028Z,55.06
2018-12-04T12:01:03.329Z,54.55
2018-12-04T12:03:37.291Z,54.45
2018-12-04T12:06:11.378Z,54.33
2018-12-04T12:08:45.515Z,54.88
2018-12-04T12:11:19.527Z,55.69
2018-12-04T12:13:53.534Z,55.74
2018-12-04T12:16:27.442Z,55.79
2018-12-04T12:19:01.452Z,56.01
2018-12-04T12:21:35.368Z,56.53
2018-12-04T12:24:09.166Z,56.26
2018-12-04T12:26:43.184Z,55.27
2018-12-04T12:29:17.042Z,54.85
2018-12-04T12:31:51.057Z,54.76
2018-12-04T12:34:25.102Z,54.26
2018-12-04T12:36:58.908Z,54.83
2018-12-04T12:39:33.480Z,54.68
2018-12-04T12:42:07.645Z,54.45
2018-12-04T12:44:41.652Z,54.78
2018-12-04T12:47:15.560Z,54.01
2018-12-04T12:49:49.342Z,54.47
2018-12-04T12:52:23.476Z,54.66
2018-12-04T12:54:57.383Z,53.81
2018-12-04T12:57:31.190Z,54.12
2018-12-04T13:00:06.433Z,53.66
2018-12-04T13:02:40.956Z,53.84
2018-12-04T13:05:14.965Z,53.53
2018-12-04T13:07:48.857Z,52.27
2018-12-04T13:10:22.869Z,52.64
2018-12-04T13:12:56.988Z,51.92
2018-12-04T13:15:30.999Z,51.96
2018-12-04T13:18:04.905Z,52.81
2018-12-04T13:20:38.607Z,52.79
2018-12-04T13:23:12.791Z,53.39
2018-12-04T13:25:46.807Z,53.64
2018-12-04T13:28:20.956Z,53.60
2018-12-04T13:30:54.763Z,53.58
2018-12-04T13:33:28.907Z,53.80
2018-12-04T13:36:02.932Z,53.76
2018-12-04T13:38:37.010Z,54.19
2018-12-04T13:41:11.141Z,54.35
2018-12-04T13:43:45.153Z,54.14
2018-12-04T13:46:18.939Z,54.18
2018-12-04T13:48:53.069Z,54.35
2018-12-04T13:51:26.844Z,54.00
2018-12-04T13:54:01.017Z,54.62
2018-12-04T13:56:34.997Z,54.51
2018-12-04T13:59:09.023Z,54.64
2018-12-04T14:01:42.973Z,54.27
2018-12-04T14:04:17.377Z,53.60
2018-12-04T14:06:51.405Z,53.79
2018-12-04T14:09:26.235Z,53.43
2018-12-04T14:12:00.385Z,53.37
2018-12-04T14:14:34.251Z,53.59
2018-12-04T14:17:08.433Z,53.60
2018-12-04T14:19:42.385Z,53.22
2018-12-04T14:22:16.440Z,53.22
2018-12-04T14:24:51.193Z,53.61
2018-12-04T14:27:25.280Z,53.49
2018-12-04T14:29:59.477Z,52.89
2018-12-04T14:32:33.590Z,53.03
2018-12-04T14:35:07.805Z,52.98
2018-12-04T14:37:41.922Z,53.72
2018-12-04T14:40:15.935Z,53.37
2018-12-04T14:42:52.147Z,53.33
2018-12-04T14:45:26.303Z,53.53
2018-12-04T14:48:00.221Z,53.54
2018-12-04T14:50:35.245Z,53.76
2018-12-04T14:53:09.134Z,53.65
2018-12-04T14:55:43.028Z,54.03
2018-12-04T14:58:17.073Z,54.13
2018-12-04T15:00:50.931Z,54.64
2018-12-04T15:03:24.969Z,54.80
2018-12-04T15:05:59.008Z,55.14
2018-12-04T15:08:32.773Z,55.27
2018-12-04T15:11:06.929Z,55.35
2018-12-04T15:13:40.803Z,55.35
2018-12-04T15:16:14.773Z,55.12
2018-12-04T15:18:48.847Z,55.00
2018-12-04T15:21:22.876Z,55.24
2018-12-04T15:23:56.859Z,55.54
2018-12-04T15:26:30.764Z,55.38
2018-12-04T15:29:05.008Z,55.37
2018-12-04T15:31:39.121Z,55.22
2018-12-04T15:34:12.897Z,55.28
2018-12-04T15:36:46.853Z,54.96
2018-12-04T15:39:20.916Z,55.18
2018-12-04T15:41:55.047Z,55.08
2018-12-04T15:44:29.169Z,54.99
2018-12-04T15:47:03.204Z,55.39
2018-12-04T15:49:37.390Z,55.19
2018-12-04T15:52:11.461Z,55.65
2018-12-04T15:54:45.450Z,55.63
2018-12-04T15:57:19.394Z,55.50
2018-12-04T15:59:53.482Z,55.61
2018-12-04T16:02:27.514Z,55.70
2018-12-04T16:05:01.320Z,56.17
2018-12-04T16:07:35.125Z,56.03
2018-12-04T16:10:09.953Z,55.85
2018-12-04T16:12:43.759Z,55.86
2018-12-04T16:15:18.694Z,55.97
2018-12-04T16:17:52.563Z,55.85
2018-12-04T16:20:26.611Z,55.91
2018-12-04T16:23:00.628Z,56.24
2018-12-04T16:25:34.730Z,56.24
2018-12-04T16:28:08.739Z,56.48
2018-12-04T16:30:42.954Z,56.37
2018-12-04T16:33:17.183Z,56.28
2018-12-04T16:35:52.203Z,56.77
2018-12-04T16:38:26.386Z,56.83
2018-12-04T16:41:00.528Z,56.78
2018-12-04T16:43:34.416Z,57.17
2018-12-04T16:46:08.548Z,57.26
2018-12-04T16:48:42.660Z,57.34
2018-12-04T16:51:16.465Z,57.24
2018-12-04T16:53:50.427Z,57.46
2018-12-04T16:56:24.587Z,61.01
2018-12-04T16:58:58.598Z,59.60
2018-12-04T17:01:33.733Z,58.29
2018-12-04T17:04:07.742Z,58.65
2018-12-04T17:06:41.704Z,62.38
2018-12-04T17:09:15.666Z,61.04
2018-12-04T17:11:49.365Z,58.73
2018-12-04T17:14:23.301Z,57.99
2018-12-04T17:16:57.566Z,57.52
2018-12-04T17:19:31.599Z,57.58
2018-12-04T17:22:05.503Z,57.62
2018-12-04T17:24:39.947Z,57.72
2018-12-04T17:27:13.941Z,57.82
2018-12-04T17:29:48.048Z,57.95
2018-12-04T17:32:22.204Z,58.20
2018-12-04T17:34:56.271Z,58.08
2018-12-04T17:37:30.181Z,58.52
2018-12-04T17:40:05.212Z,58.95
2018-12-04T17:42:39.118Z,59.05
2018-12-04T17:45:13.232Z,59.26
2018-12-04T17:47:47.305Z,59.11
2018-12-04T17:50:21.536Z,59.42
2018-12-04T17:52:55.574Z,59.54
2018-12-04T17:55:29.474Z,59.83
2018-12-04T17:58:03.318Z,59.70
2018-12-04T18:00:38.316Z,59.75
2018-12-04T18:03:12.121Z,59.60
2018-12-04T18:05:46.025Z,60.06
2018-12-04T18:08:20.035Z,60.04
2018-12-04T18:10:53.840Z,60.25
2018-12-04T18:13:27.747Z,60.11
2018-12-04T18:16:01.559Z,59.72
2018-12-04T18:18:35.459Z,59.62
2018-12-04T18:21:09.366Z,59.67
2018-12-04T18:23:43.582Z,59.51
2018-12-04T18:26:18.511Z,59.23
2018-12-04T18:28:52.521Z,59.34
2018-12-04T18:31:26.703Z,59.05
2018-12-04T18:34:00.747Z,59.31
2018-12-04T18:36:34.961Z,59.26
2018-12-04T18:39:08.971Z,59.09
2018-12-04T18:41:43.083Z,58.94
2018-12-04T18:44:17.094Z,59.09
2018-12-04T18:46:51.104Z,59.23
2018-12-04T18:49:24.908Z,59.33
2018-12-04T18:51:59.002Z,59.38
2018-12-04T18:54:33.041Z,63.39
2018-12-04T18:57:07.171Z,63.26
2018-12-04T18:59:41.270Z,62.62
2018-12-04T19:02:15.174Z,63.20
2018-12-04T19:04:49.281Z,62.38
2018-12-04T19:07:23.367Z,62.91
2018-12-04T19:09:57.394Z,62.05
2018-12-04T19:12:31.303Z,61.69
2018-12-04T19:15:05.886Z,61.55
2018-12-04T19:17:39.938Z,61.06
2018-12-04T19:20:15.140Z,60.86
2018-12-04T19:22:49.233Z,60.98
2018-12-04T19:25:23.093Z,60.57
2018-12-04T19:27:56.896Z,60.58
2018-12-04T19:30:30.803Z,60.44
2018-12-04T19:33:04.710Z,60.81
2018-12-04T19:35:38.632Z,60.96
2018-12-04T19:38:12.500Z,61.02
2018-12-04T19:40:46.744Z,61.15
2018-12-04T19:43:20.649Z,60.82
2018-12-04T19:45:54.516Z,60.18
2018-12-04T19:48:28.668Z,59.92
2018-12-04T19:51:02.476Z,60.40
2018-12-04T19:53:37.020Z,63.16
2018-12-04T19:56:11.018Z,64.29
2018-12-04T19:58:44.914Z,64.90
2018-12-04T20:01:18.829Z,64.03
2018-12-04T20:03:52.845Z,63.26
2018-12-04T20:06:26.840Z,63.08
2018-12-04T20:09:00.860Z,62.46
2018-12-04T20:11:34.676Z,62.30
2018-12-04T20:14:08.869Z,62.78
2018-12-04T20:16:42.888Z,61.94
2018-12-04T20:19:16.864Z,61.50
2018-12-04T20:21:50.853Z,60.66
2018-12-04T20:24:24.994Z,60.47
2018-12-04T20:26:59.123Z,60.08
2018-12-04T20:29:33.141Z,60.88
2018-12-04T20:32:07.213Z,62.70
2018-12-04T20:34:41.253Z,63.93
2018-12-04T20:37:15.571Z,65.35
2018-12-04T20:39:49.335Z,64.82
2018-12-04T20:42:23.637Z,64.96
2018-12-04T20:44:57.704Z,64.41
2018-12-04T20:47:31.979Z,63.00
2018-12-04T20:50:06.439Z,62.24
2018-12-04T20:52:40.245Z,62.11
2018-12-04T20:55:14.163Z,61.59
2018-12-04T20:57:48.348Z,61.09
2018-12-04T21:00:22.374Z,60.46
2018-12-04T21:02:59.773Z,60.99
2018-12-04T21:05:33.617Z,61.35
2018-12-04T21:08:07.580Z,60.68
2018-12-04T21:10:41.587Z,60.50
2018-12-04T21:13:15.599Z,60.39
2018-12-04T21:15:49.619Z,60.97
2018-12-04T21:18:23.933Z,60.88
2018-12-04T21:20:57.848Z,61.26
2018-12-04T21:23:31.960Z,61.60
2018-12-04T21:26:05.862Z,61.80
2018-12-04T21:28:41.913Z,62.37
2018-12-04T21:31:21.450Z,62.32
2018-12-04T21:34:00.987Z,61.55
2018-12-04T21:36:40.441Z,61.70
2018-12-04T21:39:19.349Z,61.82
2018-12-04T21:41:58.022Z,61.77
2018-12-04T21:44:37.869Z,61.97
2018-12-04T21:47:17.425Z,62.25
2018-12-04T21:49:51.390Z,62.25
2018-12-04T21:52:25.528Z,62.00
2018-12-04T21:54:59.422Z,61.33
2018-12-04T21:57:33.557Z,60.75
2018-12-04T22:00:07.828Z,61.71
2018-12-04T22:02:41.980Z,62.12
2018-12-04T22:05:15.987Z,63.07
2018-12-04T22:07:49.998Z,62.81
2018-12-04T22:10:23.904Z,62.36
2018-12-04T22:12:57.813Z,62.37
2018-12-04T22:15:31.674Z,62.06
2018-12-04T22:18:05.728Z,62.45
2018-12-04T22:20:39.533Z,64.63
2018-12-04T22:23:13.497Z,64.01
2018-12-04T22:25:47.553Z,63.51
2018-12-04T22:28:21.357Z,63.01
2018-12-04T22:30:55.372Z,62.10
2018-12-04T22:33:29.376Z,62.49
2018-12-04T22:36:04.412Z,62.55
2018-12-04T22:38:38.318Z,62.63
2018-12-04T22:41:12.386Z,63.45
2018-12-04T22:43:46.438Z,63.33
2018-12-04T22:46:20.246Z,62.72
2018-12-04T22:48:54.356Z,62.37
2018-12-04T22:51:28.365Z,62.77
2018-12-04T22:54:02.340Z,62.72
2018-12-04T22:56:36.756Z,62.85
2018-12-04T22:59:10.805Z,63.01
2018-12-04T23:01:44.712Z,62.93
2018-12-04T23:04:18.925Z,62.61
2018-12-04T23:06:53.043Z,62.08
2018-12-04T23:09:27.012Z,62.40
2018-12-04T23:12:01.226Z,62.78
2018-12-04T23:14:35.272Z,62.56
2018-12-04T23:17:09.234Z,63.05
2018-12-04T23:19:43.395Z,62.61
2018-12-04T23:22:17.505Z,61.92
2018-12-04T23:24:51.708Z,61.85
2018-12-04T23:27:25.832Z,61.88
2018-12-04T23:29:59.841Z,61.34
2018-12-04T23:32:33.748Z,61.65
2018-12-04T23:35:07.963Z,61.71
2018-12-04T23:37:41.836Z,61.35
2018-12-04T23:40:15.883Z,61.47
2018-12-04T23:42:49.787Z,61.40
2018-12-04T23:45:23.503Z,61.52
2018-12-04T23:47:57.499Z,61.01
2018-12-04T23:50:31.305Z,61.11
2018-12-04T23:53:05.315Z,61.21
2018-12-04T23:55:39.325Z,60.71
2018-12-04T23:58:13.438Z,60.77
